Time;durP1;ratioP1;P1;durP2;ratioP2;P2;SDS_P1;SDS_P2;PMS_P1;PMS_P2;Temp;Humidity;BMP_temperature;BMP_pressure;BME280_temperature;BME280_humidity;BME280_pressure;Samples;Min_cycle;Max_cycle;Signal;HPM_P1;HPM_P2
2023/06/04 00:02:07;;;;;;;;;;;;;;;20.01;45.65;96748.47;6294802;28;19925;-73
2023/06/04 00:05:08;;;;;;;;;;;;;;;20.10;43.70;96750.19;6294553;28;20015;-73
2023/06/04 00:08:09;;;;;;;;;;;;;;;20.15;44.90;96758.53;6294129;28;19924;-74
2023/06/04 00:11:12;;;;;;;;;;;;;;;20.16;45.23;96754.88;6294115;28;20007;-72
2023/06/04 00:14:16;;;;;;;;;;;;;;;20.19;44.33;96754.56;6294061;28;19925;-72
2023/06/04 00:17:17;;;;;;;;;;;;;;;20.22;44.88;96757.91;6294649;28;19924;-74
2023/06/04 00:20:20;;;;;;;;;;;;;;;20.21;44.80;96756.22;6294596;28;19924;-73
2023/06/04 00:23:25;;;;;;;;;;;;;;;20.22;44.66;96765.94;6294592;28;19956;-72
2023/06/04 00:26:29;;;;;;;;;;;;;;;20.25;44.63;96773.63;6294551;28;19925;-73
2023/06/04 00:29:35;;;;;;;;;;;;;;;20.30;44.64;96773.97;6294867;28;19932;-74
2023/06/04 00:32:40;;;;;;;;;;;;;;;20.31;45.79;96772.97;6294466;28;19932;-73
2023/06/04 00:35:44;;;;;;;;;;;;;;;20.30;45.17;96760.63;6294005;28;19982;-73
2023/06/04 00:38:48;;;;;;;;;;;;;;;20.32;45.32;96758.59;6297284;28;20357;-73
2023/06/04 00:41:54;;;;;;;;;;;;;;;20.39;44.84;96759.63;6299031;28;19925;-73
2023/06/04 00:44:58;;;;;;;;;;;;;;;20.40;44.69;96764.78;6298840;28;19966;-73
2023/06/04 00:47:59;;;;;;;;;;;;;;;20.47;44.67;96764.16;6298284;28;19925;-74
2023/06/04 00:51:03;;;;;;;;;;;;;;;20.62;44.35;96763.38;6298809;28;19930;-73
2023/06/04 00:54:09;;;;;;;;;;;;;;;20.67;44.49;96756.72;6298606;28;20398;-73
2023/06/04 00:57:13;;;;;;;;;;;;;;;20.69;44.52;96757.34;6298032;28;20027;-73
2023/06/04 01:00:16;;;;;;;;;;;;;;;20.68;44.96;96758.38;6298431;28;19924;-73
2023/06/04 01:03:29;;;;;;;;;;;;;;;20.75;44.41;96754.00;6298131;28;19925;-72
2023/06/04 01:06:32;;;;;;;;;;;;;;;20.84;44.40;96753.03;6297615;28;20416;-72
2023/06/04 01:09:37;;;;;;;;;;;;;;;20.89;44.22;96756.06;6298620;28;19993;-72
2023/06/04 01:12:41;;;;;;;;;;;;;;;20.89;44.19;96749.84;6298323;28;19925;-73
2023/06/04 01:15:45;;;;;;;;;;;;;;;20.83;44.85;96749.53;6297447;28;20242;-71
2023/06/04 01:18:51;;;;;;;;;;;;;;;20.77;45.06;96749.34;6298108;28;19929;-72
2023/06/04 01:21:53;;;;;;;;;;;;;;;20.69;45.78;96752.00;6298340;28;19932;-73
2023/06/04 01:25:01;;;;;;;;;;;;;;;20.69;44.64;96766.19;6298021;28;19924;-73
2023/06/04 01:28:05;;;;;;;;;;;;;;;20.73;44.65;96761.38;6297906;28;19925;-73
2023/06/04 01:31:09;;;;;;;;;;;;;;;20.75;45.06;96759.34;6297458;28;19936;-73
2023/06/04 01:34:10;;;;;;;;;;;;;;;20.74;45.09;96757.69;6297984;28;19935;-73
2023/06/04 01:37:11;;;;;;;;;;;;;;;20.77;44.96;96754.69;6297556;28;19924;-73
2023/06/04 01:40:12;;;;;;;;;;;;;;;20.85;45.41;96757.38;6296487;28;19931;-72
2023/06/04 01:43:16;;;;;;;;;;;;;;;20.99;44.88;96756.72;6296947;28;20290;-74
2023/06/04 01:46:17;;;;;;;;;;;;;;;21.27;45.00;96764.38;6296446;28;20317;-72
2023/06/04 01:49:23;;;;;;;;;;;;;;;21.63;43.75;96753.31;6296912;28;19954;-73
2023/06/04 01:52:26;;;;;;;;;;;;;;;22.06;43.50;96754.66;6297453;28;20445;-74
2023/06/04 01:55:29;;;;;;;;;;;;;;;22.40;42.91;96751.66;6296688;28;19924;-74
2023/06/04 01:58:33;;;;;;;;;;;;;;;22.71;41.44;96748.13;6296806;28;19925;-71
2023/06/04 02:01:36;;;;;;;;;;;;;;;22.92;41.82;96738.56;6296770;28;19924;-73
2023/06/04 02:04:41;;;;;;;;;;;;;;;23.04;41.99;96743.38;6297054;28;19924;-72
2023/06/04 02:07:44;;;;;;;;;;;;;;;23.04;41.99;96762.16;6296557;28;20633;-73
2023/06/04 02:10:50;;;;;;;;;;;;;;;23.09;42.00;96772.34;6296926;28;19924;-73
2023/06/04 02:13:51;;;;;;;;;;;;;;;23.18;41.64;96770.41;6296829;28;20407;-73
2023/06/04 02:16:53;;;;;;;;;;;;;;;23.17;41.93;96758.84;6296142;28;19944;-73
2023/06/04 02:19:55;;;;;;;;;;;;;;;23.11;42.34;96759.59;6296703;28;19924;-73
2023/06/04 02:23:01;;;;;;;;;;;;;;;23.09;42.43;96756.22;6296557;28;20393;-72
2023/06/04 02:26:07;;;;;;;;;;;;;;;23.12;42.29;96765.78;6296479;28;19925;-72
2023/06/04 02:29:08;;;;;;;;;;;;;;;23.02;42.60;96771.41;6295911;28;19931;-73
2023/06/04 02:32:12;;;;;;;;;;;;;;;22.93;42.60;96767.06;6296533;28;20309;-73
2023/06/04 02:35:15;;;;;;;;;;;;;;;22.86;43.08;96759.72;6296295;28;20025;-73
2023/06/04 02:38:19;;;;;;;;;;;;;;;22.81;42.88;96759.44;6296347;28;19928;-73
2023/06/04 02:41:21;;;;;;;;;;;;;;;22.85;43.19;96759.94;6296057;28;19931;-73
2023/06/04 02:44:22;;;;;;;;;;;;;;;22.95;42.71;96759.66;6295552;28;20466;-73
2023/06/04 02:47:25;;;;;;;;;;;;;;;23.09;42.76;96756.22;6296075;28;20325;-73
2023/06/04 02:50:30;;;;;;;;;;;;;;;23.27;42.19;96754.06;6296096;28;20291;-73
2023/06/04 02:53:31;;;;;;;;;;;;;;;23.28;42.57;96755.72;6294060;28;19924;-73
2023/06/04 02:56:36;;;;;;;;;;;;;;;23.22;42.69;96745.72;6295524;28;19931;-73
2023/06/04 02:59:39;;;;;;;;;;;;;;;23.17;42.76;96742.75;6295401;28;19991;-73
2023/06/04 03:02:44;;;;;;;;;;;;;;;22.99;42.87;96736.88;6295709;28;19924;-73
2023/06/04 03:05:46;;;;;;;;;;;;;;;22.94;43.27;96737.38;6295049;28;19924;-73
2023/06/04 03:08:48;;;;;;;;;;;;;;;22.97;43.42;96742.41;6295350;28;20500;-74
2023/06/04 03:11:48;;;;;;;;;;;;;;;22.84;43.76;96743.00;6295061;28;19932;-73
2023/06/04 03:14:52;;;;;;;;;;;;;;;22.84;43.51;96742.16;6295167;28;19924;-73
2023/06/04 03:17:56;;;;;;;;;;;;;;;22.89;43.38;96739.75;6295284;28;19924;-73
2023/06/04 03:21:00;;;;;;;;;;;;;;;22.99;43.79;96735.03;6294906;28;20277;-74
2023/06/04 03:24:04;;;;;;;;;;;;;;;23.11;43.02;96737.28;6295461;28;20034;-73
2023/06/04 03:27:07;;;;;;;;;;;;;;;23.21;43.00;96744.06;6294879;28;19929;-73
2023/06/04 03:30:08;;;;;;;;;;;;;;;23.25;42.86;96740.00;6293892;28;20404;-73
2023/06/04 03:33:10;;;;;;;;;;;;;;;23.29;42.79;96729.72;6294910;28;19928;-73
2023/06/04 03:36:13;;;;;;;;;;;;;;;23.42;43.02;96739.84;6294604;28;19932;-73
2023/06/04 03:39:19;;;;;;;;;;;;;;;23.58;42.49;96738.81;6295265;28;19928;-72
2023/06/04 03:42:23;;;;;;;;;;;;;;;23.88;42.03;96747.75;6295287;28;19924;-73
2023/06/04 03:45:24;;;;;;;;;;;;;;;24.19;41.60;96745.69;6294803;28;20417;-74
2023/06/04 03:48:25;;;;;;;;;;;;;;;24.46;41.56;96754.09;6294981;28;19966;-73
2023/06/04 03:51:30;;;;;;;;;;;;;;;24.61;41.42;96752.19;6294748;28;19979;-72
2023/06/04 03:54:34;;;;;;;;;;;;;;;24.74;41.19;96754.19;6294736;28;20317;-73
2023/06/04 03:57:35;;;;;;;;;;;;;;;24.98;40.85;96763.75;6275681;28;20463;-72
2023/06/04 04:00:36;;;;;;;;;;;;;;;25.37;40.15;96759.75;6294752;28;19925;-74
2023/06/04 04:03:39;;;;;;;;;;;;;;;25.75;39.38;96762.09;6293662;28;19924;-73
2023/06/04 04:06:43;;;;;;;;;;;;;;;26.19;38.76;96755.53;6294596;28;20398;-74
2023/06/04 04:09:46;;;;;;;;;;;;;;;26.71;38.69;96758.63;6294673;28;20296;-74
2023/06/04 04:12:47;;;;;;;;;;;;;;;27.37;37.77;96741.69;6296026;28;19931;-73
2023/06/04 04:15:52;;;;;;;;;;;;;;;28.07;36.64;96742.81;6299075;28;19925;-73
2023/06/04 04:18:55;;;;;;;;;;;;;;;28.55;36.02;96749.75;6299228;28;19942;-73
2023/06/04 04:21:58;;;;;;;;;;;;;;;28.88;35.52;96744.13;6299375;28;19924;-73
2023/06/04 04:25:01;;;;;;;;;;;;;;;29.09;35.50;96751.91;6298794;28;20404;-73
2023/06/04 04:28:08;;;;;;;;;;;;;;;29.24;35.21;96753.47;6299352;28;19928;-73
2023/06/04 04:31:09;;;;;;;;;;;;;;;29.37;35.05;96747.97;6298299;28;19924;-73
2023/06/04 04:34:14;;;;;;;;;;;;;;;29.61;35.03;96759.00;6299027;28;20301;-73
2023/06/04 04:37:21;;;;;;;;;;;;;;;29.79;34.82;96756.38;6298999;28;19928;-73
2023/06/04 04:40:24;;;;;;;;;;;;;;;30.18;34.42;96754.28;6299190;28;19924;-73
2023/06/04 04:43:30;;;;;;;;;;;;;;;31.95;31.36;96758.41;6298584;28;19924;-73
2023/06/04 04:46:31;;;;;;;;;;;;;;;34.91;27.42;96767.22;6298401;28;19924;-74
2023/06/04 04:49:32;;;;;;;;;;;;;;;37.29;25.76;96762.66;6298334;28;19924;-73
2023/06/04 04:52:33;;;;;;;;;;;;;;;39.21;24.57;96767.13;6298872;28;19924;-73
2023/06/04 04:55:38;;;;;;;;;;;;;;;40.90;22.89;96761.88;6298687;28;19960;-73
2023/06/04 04:58:44;;;;;;;;;;;;;;;42.30;21.78;96762.94;6298407;28;19924;-72
2023/06/04 05:01:49;;;;;;;;;;;;;;;41.37;23.64;96758.16;6298043;28;19931;-74
2023/06/04 05:04:56;;;;;;;;;;;;;;;40.21;24.47;96742.06;6299172;28;19925;-73
2023/06/04 05:08:02;;;;;;;;;;;;;;;38.62;25.85;96743.25;6299458;28;19931;-73
2023/06/04 05:11:06;;;;;;;;;;;;;;;37.73;26.39;96740.16;6299120;28;19951;-72
2023/06/04 05:14:10;;;;;;;;;;;;;;;39.01;26.08;96742.47;6298670;28;20007;-74
2023/06/04 05:17:12;;;;;;;;;;;;;;;42.00;22.79;96753.28;6298228;28;19964;-73
2023/06/04 05:20:16;;;;;;;;;;;;;;;45.80;19.91;96757.03;6298404;28;20385;-72
2023/06/04 05:23:19;;;;;;;;;;;;;;;49.32;17.51;96752.91;6297840;28;19925;-72
2023/06/04 05:26:25;;;;;;;;;;;;;;;51.79;15.85;96758.16;6297226;28;19956;-73
2023/06/04 05:29:29;;;;;;;;;;;;;;;53.93;14.81;96754.13;6297568;28;19965;-73
2023/06/04 05:32:33;;;;;;;;;;;;;;;54.31;12.41;96746.47;6297509;28;19931;-72
2023/06/04 05:35:41;;;;;;;;;;;;;;;53.25;14.97;96740.06;6297538;28;19924;-73
2023/06/04 05:38:46;;;;;;;;;;;;;;;53.37;13.87;96745.47;6297088;28;19924;-73
2023/06/04 05:41:51;;;;;;;;;;;;;;;54.64;11.42;96740.75;6297065;28;19973;-73
2023/06/04 05:44:56;;;;;;;;;;;;;;;55.58;9.06;96733.56;6297389;28;19931;-72
2023/06/04 05:47:59;;;;;;;;;;;;;;;56.83;10.62;96735.72;6296796;28;19942;-72
2023/06/04 05:51:02;;;;;;;;;;;;;;;58.08;11.19;96726.69;6297961;28;20398;-72
2023/06/04 05:54:04;;;;;;;;;;;;;;;58.69;8.81;96717.66;6303912;28;19932;-72
2023/06/04 05:57:11;;;;;;;;;;;;;;;59.17;10.44;96718.75;6316837;28;20369;-72
2023/06/04 06:00:13;;;;;;;;;;;;;;;60.47;9.39;96719.31;6321214;28;19928;-72
2023/06/04 06:37:21;;;;;;;;;;;;;;;60.39;8.32;96650.44;7493572;23;19931;-72
2023/06/04 06:40:24;;;;;;;;;;;;;;;59.39;8.69;96631.34;6205657;28;19906;-73
2023/06/04 06:43:27;;;;;;;;;;;;;;;60.24;6.90;96632.03;6226364;28;19926;-72
2023/06/04 08:29:40;;;;;;;;;;;;;;;60.29;4.18;96503.66;7040157;23;19930;-72
2023/06/04 08:32:46;;;;;;;;;;;;;;;59.80;3.86;96488.34;6203629;28;19926;-73
2023/06/04 08:35:54;;;;;;;;;;;;;;;60.27;3.65;96482.59;6200465;28;19985;-73
2023/06/04 08:38:57;;;;;;;;;;;;;;;60.91;3.53;96480.44;6213100;28;20383;-73
2023/06/04 08:42:01;;;;;;;;;;;;;;;61.85;2.93;96488.28;6195199;28;19926;-74
2023/06/04 08:45:09;;;;;;;;;;;;;;;62.24;2.64;96486.44;6208315;28;19969;-72
2023/06/04 08:48:14;;;;;;;;;;;;;;;62.20;2.63;96477.16;6204952;28;20380;-73
2023/06/04 08:51:18;;;;;;;;;;;;;;;61.36;2.64;96465.56;6196778;28;19926;-73
2023/06/04 08:54:20;;;;;;;;;;;;;;;60.32;2.48;96460.16;6196014;28;19925;-73
2023/06/04 08:57:26;;;;;;;;;;;;;;;60.17;2.59;96462.53;6195468;28;19955;-72
2023/06/04 09:00:28;;;;;;;;;;;;;;;58.76;3.17;96439.78;6199660;28;20088;-74
2023/06/04 09:03:32;;;;;;;;;;;;;;;56.07;3.89;96434.81;6182105;28;19926;-72
2023/06/04 09:06:37;;;;;;;;;;;;;;;54.82;4.12;96421.59;6199719;28;19992;-73
2023/06/04 09:09:44;;;;;;;;;;;;;;;56.19;4.11;96425.88;6198422;28;20423;-73
2023/06/04 09:12:47;;;;;;;;;;;;;;;56.62;3.83;96432.16;6199773;28;20021;-73
2023/06/04 09:16:01;;;;;;;;;;;;;;;55.75;4.19;96415.97;6182785;28;19925;-73
2023/06/04 09:19:04;;;;;;;;;;;;;;;55.88;3.74;96421.94;6198925;28;19922;-73
2023/06/04 09:22:09;;;;;;;;;;;;;;;54.08;4.24;96411.66;6198824;28;20410;-73
2023/06/04 09:25:18;;;;;;;;;;;;;;;50.28;5.74;96402.09;6198488;28;20570;-72
2023/06/04 09:28:29;;;;;;;;;;;;;;;48.37;6.77;96411.78;6182672;28;20016;-73
2023/06/04 09:31:36;;;;;;;;;;;;;;;46.85;7.83;96406.63;6175271;28;19926;-73
2023/06/04 09:34:44;;;;;;;;;;;;;;;47.82;7.09;96396.66;6174594;28;19926;-73
2023/06/04 09:37:53;;;;;;;;;;;;;;;48.87;6.83;96399.22;6175218;28;20055;-73
2023/06/04 09:41:00;;;;;;;;;;;;;;;47.64;7.44;96399.66;6175059;28;19925;-74
2023/06/04 09:44:05;;;;;;;;;;;;;;;45.57;8.25;96400.72;6174061;28;20312;-73
2023/06/04 09:47:08;;;;;;;;;;;;;;;45.13;8.59;96400.09;6174097;28;19990;-72
2023/06/04 09:50:14;;;;;;;;;;;;;;;46.62;7.91;96386.72;6174985;28;19926;-72
2023/06/04 09:53:22;;;;;;;;;;;;;;;48.56;6.94;96400.78;6174624;28;19937;-73
2023/06/04 09:56:26;;;;;;;;;;;;;;;49.11;6.88;96414.97;6174693;28;19926;-73
2023/06/04 09:59:36;;;;;;;;;;;;;;;47.46;7.48;96398.31;6174523;28;19926;-72
2023/06/04 10:02:43;;;;;;;;;;;;;;;45.33;8.30;96390.25;6173553;28;19926;-74
2023/06/04 10:05:44;;;;;;;;;;;;;;;43.36;9.33;96378.75;6173484;28;19926;-74
2023/06/04 10:08:46;;;;;;;;;;;;;;;41.75;10.51;96379.59;6173923;28;19926;-73
2023/06/04 10:11:54;;;;;;;;;;;;;;;40.84;10.75;96385.94;6173547;28;19926;-73
2023/06/04 10:15:10;;;;;;;;;;;;;;;40.91;11.24;96391.03;6174243;28;19981;-73
2023/06/04 10:18:13;;;;;;;;;;;;;;;40.20;11.47;96395.91;6174084;28;20380;-73
2023/06/04 10:21:20;;;;;;;;;;;;;;;40.76;11.90;96406.75;6173965;28;19926;-73
2023/06/04 10:24:26;;;;;;;;;;;;;;;41.26;11.46;96408.84;6173990;28;20344;-74
2023/06/04 10:27:35;;;;;;;;;;;;;;;41.22;11.35;96394.84;6156225;28;19937;-73
2023/06/04 10:30:38;;;;;;;;;;;;;;;40.27;11.38;96382.56;6174996;28;20408;-73
2023/06/04 10:33:40;;;;;;;;;;;;;;;39.31;11.61;96372.66;6172481;28;19926;-73
2023/06/04 10:36:45;;;;;;;;;;;;;;;38.99;11.57;96365.09;6173733;28;19933;-74
2023/06/04 10:39:55;;;;;;;;;;;;;;;38.84;11.46;96382.53;6173623;28;20316;-73
2023/06/04 10:43:04;;;;;;;;;;;;;;;39.03;11.74;96377.94;6172883;28;19930;-72
2023/06/04 10:46:13;;;;;;;;;;;;;;;40.65;10.84;96387.94;6172174;28;19937;-73
2023/06/04 10:49:26;;;;;;;;;;;;;;;42.62;9.68;96383.00;6173628;28;19926;-72
2023/06/04 10:52:27;;;;;;;;;;;;;;;44.45;8.81;96391.69;6173034;28;19973;-72
2023/06/04 10:55:43;;;;;;;;;;;;;;;46.02;8.19;96394.50;6155886;28;19926;-72
2023/06/04 10:58:44;;;;;;;;;;;;;;;47.37;7.78;96389.25;6155347;28;19926;-73
2023/06/04 11:01:47;;;;;;;;;;;;;;;48.10;7.40;96389.13;6173106;28;20400;-72
2023/06/04 11:05:05;;;;;;;;;;;;;;;48.33;7.62;96392.16;6173092;28;19926;-73
2023/06/04 11:08:13;;;;;;;;;;;;;;;48.52;7.70;96393.47;6173161;28;19930;-74
2023/06/04 11:11:16;;;;;;;;;;;;;;;47.98;7.71;96385.53;6172772;28;20028;-72
2023/06/04 11:14:18;;;;;;;;;;;;;;;47.17;8.31;96377.91;6171914;28;20418;-73
2023/06/04 11:17:22;;;;;;;;;;;;;;;46.48;8.55;96367.56;6171920;28;19926;-72
2023/06/04 11:20:25;;;;;;;;;;;;;;;46.04;8.87;96381.91;6172654;28;20013;-73
2023/06/04 11:23:29;;;;;;;;;;;;;;;45.54;8.83;96373.63;6170996;28;19926;-73
2023/06/04 11:26:33;;;;;;;;;;;;;;;44.83;8.86;96361.22;6172168;28;19926;-73
2023/06/04 11:29:40;;;;;;;;;;;;;;;44.56;8.84;96366.03;6171927;28;19926;-73
2023/06/04 11:32:43;;;;;;;;;;;;;;;43.54;8.78;96357.44;6172384;28;19926;-74
2023/06/04 11:35:52;;;;;;;;;;;;;;;42.74;9.17;96358.34;6172570;28;20386;-73
2023/06/04 11:39:06;;;;;;;;;;;;;;;42.47;9.48;96353.00;6172659;28;19933;-73
2023/06/04 11:42:08;;;;;;;;;;;;;;;41.32;10.01;96357.91;6172018;28;19933;-73
2023/06/04 11:45:10;;;;;;;;;;;;;;;40.33;10.25;96335.28;6171636;28;19926;-72
2023/06/04 11:48:16;;;;;;;;;;;;;;;40.06;10.22;96341.53;6172393;28;19926;-73
2023/06/04 11:51:20;;;;;;;;;;;;;;;39.24;10.32;96323.47;6172461;28;19933;-73
2023/06/04 11:54:22;;;;;;;;;;;;;;;39.18;10.34;96312.81;6154649;28;20384;-73
2023/06/04 11:57:25;;;;;;;;;;;;;;;38.88;10.99;96314.88;6171274;28;20387;-73
2023/06/04 12:00:28;;;;;;;;;;;;;;;38.78;10.36;96318.53;6171455;28;19926;-74
2023/06/04 12:03:35;;;;;;;;;;;;;;;38.68;10.27;96310.44;6171186;28;19970;-73
2023/06/04 12:06:38;;;;;;;;;;;;;;;38.59;10.46;96314.94;6172381;28;19922;-73
2023/06/04 12:09:42;;;;;;;;;;;;;;;38.34;10.21;96299.50;6172068;28;19926;-74
2023/06/04 12:12:43;;;;;;;;;;;;;;;38.30;10.00;96301.19;6171196;28;20068;-73
2023/06/04 12:15:50;;;;;;;;;;;;;;;38.22;11.00;96308.16;6171444;28;19926;-72
2023/06/04 12:18:52;;;;;;;;;;;;;;;38.11;11.31;96312.13;6171460;28;19922;-74
2023/06/04 12:22:03;;;;;;;;;;;;;;;37.84;11.35;96307.91;6172013;28;19933;-73
2023/06/04 12:25:06;;;;;;;;;;;;;;;37.67;11.96;96318.50;6172072;28;19926;-73
2023/06/04 12:28:16;;;;;;;;;;;;;;;37.12;13.29;96351.47;6170963;28;19926;-73
2023/06/04 12:31:23;;;;;;;;;;;;;;;37.00;15.09;96354.53;6192640;28;19980;-73
2023/06/04 12:34:29;;;;;;;;;;;;;;;36.88;15.58;96373.19;6198669;28;19930;-73
2023/06/04 12:37:35;;;;;;;;;;;;;;;36.57;15.53;96367.81;6200488;28;20090;-73
2023/06/04 12:40:37;;;;;;;;;;;;;;;36.47;15.69;96383.44;6199900;28;19926;-74
2023/06/04 12:43:43;;;;;;;;;;;;;;;36.01;16.24;96370.59;6200301;28;19926;-73
2023/06/04 12:46:47;;;;;;;;;;;;;;;35.68;16.56;96364.53;6199655;28;19929;-73
2023/06/04 12:49:52;;;;;;;;;;;;;;;35.39;16.68;96382.53;6200412;28;20024;-75
2023/06/04 12:52:56;;;;;;;;;;;;;;;35.19;16.90;96364.97;6199284;28;20311;-73
2023/06/04 12:55:57;;;;;;;;;;;;;;;34.90;17.44;96366.44;6199519;28;19926;-73
2023/06/04 12:59:01;;;;;;;;;;;;;;;34.77;17.17;96365.03;6200204;28;19926;-74
2023/06/04 13:02:05;;;;;;;;;;;;;;;34.73;17.16;96355.72;6198978;28;19925;-72
2023/06/04 13:05:08;;;;;;;;;;;;;;;34.67;17.49;96352.13;6200309;28;20023;-72
2023/06/04 13:08:09;;;;;;;;;;;;;;;34.77;17.21;96357.66;6199096;28;20438;-72
2023/06/04 13:11:12;;;;;;;;;;;;;;;34.94;17.16;96351.97;6199977;28;19925;-73
2023/06/04 13:14:15;;;;;;;;;;;;;;;35.02;16.98;96347.91;6199674;28;19926;-73
2023/06/04 13:17:16;;;;;;;;;;;;;;;35.21;17.26;96364.66;6199326;28;19925;-73
2023/06/04 13:20:20;;;;;;;;;;;;;;;35.06;17.26;96370.91;6199666;28;20400;-72
2023/06/04 13:23:21;;;;;;;;;;;;;;;34.99;17.26;96364.84;6198530;28;20308;-72
2023/06/04 13:26:25;;;;;;;;;;;;;;;34.87;18.02;96370.53;6198695;28;19985;-73
2023/06/04 13:29:33;;;;;;;;;;;;;;;34.87;17.82;96368.59;6199424;28;19976;-73
2023/06/04 13:32:34;;;;;;;;;;;;;;;35.15;17.63;96369.31;6198648;28;19926;-73
2023/06/04 13:35:35;;;;;;;;;;;;;;;35.42;17.03;96379.25;6198447;28;20431;-73
2023/06/04 13:38:36;;;;;;;;;;;;;;;35.26;16.90;96370.97;6198365;28;19925;-73
2023/06/04 13:41:40;;;;;;;;;;;;;;;35.03;17.35;96368.69;6199052;28;19929;-73
2023/06/04 13:44:46;;;;;;;;;;;;;;;34.89;17.31;96379.28;6198385;28;19926;-73
2023/06/04 13:47:53;;;;;;;;;;;;;;;34.83;17.35;96378.44;6198995;28;20189;-73
2023/06/04 13:50:54;;;;;;;;;;;;;;;34.75;17.71;96387.16;6198227;28;19926;-73
2023/06/04 13:53:56;;;;;;;;;;;;;;;34.70;17.86;96384.38;6198024;28;19976;-72
2023/06/04 13:57:03;;;;;;;;;;;;;;;34.23;18.41;96371.50;6198891;28;19944;-72
2023/06/04 14:00:09;;;;;;;;;;;;;;;33.75;18.59;96374.09;6198652;28;19972;-74
2023/06/04 14:03:12;;;;;;;;;;;;;;;33.34;19.00;96372.00;6198589;28;20004;-73
2023/06/04 14:06:14;;;;;;;;;;;;;;;32.82;19.29;96376.03;6198394;28;20459;-73
2023/06/04 14:09:18;;;;;;;;;;;;;;;32.41;19.48;96368.09;6198514;28;19926;-73
2023/06/04 14:12:22;;;;;;;;;;;;;;;32.17;19.94;96370.19;6198610;28;20303;-73
2023/06/04 14:15:26;;;;;;;;;;;;;;;31.93;19.89;96375.00;6198596;28;19926;-74
2023/06/04 14:18:29;;;;;;;;;;;;;;;31.75;19.97;96373.28;6198354;28;19930;-74
2023/06/04 14:21:30;;;;;;;;;;;;;;;31.61;20.73;96371.13;6198116;28;19932;-73
2023/06/04 14:24:34;;;;;;;;;;;;;;;31.33;20.49;96362.72;6181161;28;19926;-73
2023/06/04 14:27:39;;;;;;;;;;;;;;;31.20;20.53;96371.19;6198162;28;20396;-72
2023/06/04 14:30:43;;;;;;;;;;;;;;;31.05;20.22;96368.16;6156391;28;20006;-75
2023/06/04 14:33:47;;;;;;;;;;;;;;;31.14;20.46;96368.59;6173920;28;20028;-74
2023/06/04 14:36:51;;;;;;;;;;;;;;;31.31;20.27;96364.88;6173782;28;19928;-73
2023/06/04 14:39:54;;;;;;;;;;;;;;;31.47;20.22;96370.59;6173630;28;19932;-73
2023/06/04 14:42:58;;;;;;;;;;;;;;;31.66;20.23;96369.31;6173741;28;19922;-74
2023/06/04 14:46:00;;;;;;;;;;;;;;;31.63;21.21;96363.56;6172377;28;19926;-74
2023/06/04 14:49:03;;;;;;;;;;;;;;;31.50;21.53;96368.22;6172407;28;19933;-74
2023/06/04 14:52:07;;;;;;;;;;;;;;;31.41;21.78;96361.53;6173445;28;19926;-74
2023/06/04 14:55:11;;;;;;;;;;;;;;;31.50;22.28;96361.94;6174780;28;19952;-73
2023/06/04 14:58:15;;;;;;;;;;;;;;;31.33;22.29;96367.31;6173504;28;20455;-73
2023/06/04 15:01:18;;;;;;;;;;;;;;;31.33;22.75;96365.44;6159069;28;19926;-74
2023/06/04 15:04:22;;;;;;;;;;;;;;;31.08;23.09;96367.66;6177439;28;19932;-72
2023/06/04 15:07:26;;;;;;;;;;;;;;;31.07;23.49;96366.84;6176163;28;19925;-74
2023/06/04 15:10:29;;;;;;;;;;;;;;;31.61;22.69;96357.53;6174576;28;19933;-74
2023/06/04 15:13:33;;;;;;;;;;;;;;;31.41;23.19;96366.16;6157891;28;19981;-74
2023/06/04 15:16:36;;;;;;;;;;;;;;;31.14;23.28;96364.00;6173780;28;19926;-73
2023/06/04 15:19:38;;;;;;;;;;;;;;;30.86;23.80;96376.47;6134001;29;19930;-73
2023/06/04 15:22:41;;;;;;;;;;;;;;;30.64;23.94;96376.25;6149402;29;19926;-73
2023/06/04 15:25:45;;;;;;;;;;;;;;;30.45;24.70;96369.31;6149044;29;19926;-73
2023/06/04 15:28:47;;;;;;;;;;;;;;;30.26;24.60;96371.31;6131679;28;19926;-73
2023/06/04 15:31:49;;;;;;;;;;;;;;;30.08;24.99;96374.13;6154247;28;19930;-73
2023/06/04 15:34:52;;;;;;;;;;;;;;;29.88;25.31;96369.84;6153108;28;20414;-73
2023/06/04 15:37:57;;;;;;;;;;;;;;;29.72;25.51;96378.66;6155825;28;20020;-73
2023/06/04 15:41:00;;;;;;;;;;;;;;;29.54;25.36;96376.84;6154846;28;19930;-74
2023/06/04 15:44:03;;;;;;;;;;;;;;;29.36;25.47;96385.03;6172304;28;19926;-74
2023/06/04 15:47:06;;;;;;;;;;;;;;;29.23;26.17;96388.75;6171824;28;20310;-73
2023/06/04 15:50:16;;;;;;;;;;;;;;;29.01;25.99;96391.91;6172328;28;19926;-75
2023/06/04 15:53:20;;;;;;;;;;;;;;;28.88;26.28;96392.91;6172100;28;20367;-74
2023/06/04 15:56:23;;;;;;;;;;;;;;;28.70;26.45;96394.78;6139049;28;19926;-73
2023/06/04 15:59:26;;;;;;;;;;;;;;;28.51;26.91;96397.50;6171818;28;19933;-75
2023/06/04 16:02:30;;;;;;;;;;;;;;;28.33;26.56;96400.13;6171997;28;19926;-74
2023/06/04 16:05:33;;;;;;;;;;;;;;;28.21;27.21;96402.75;6154708;28;19980;-74
2023/06/04 16:08:37;;;;;;;;;;;;;;;28.04;27.27;96401.66;6173210;28;20020;-74
2023/06/04 16:11:42;;;;;;;;;;;;;;;27.82;27.06;96403.91;6159625;28;19926;-74
2023/06/04 16:14:46;;;;;;;;;;;;;;;27.69;27.45;96411.03;6176703;28;20319;-74
2023/06/04 16:17:50;;;;;;;;;;;;;;;27.58;27.50;96406.34;6176522;28;19929;-74
2023/06/04 16:20:56;;;;;;;;;;;;;;;27.45;27.51;96419.94;6159151;28;20367;-73
2023/06/04 16:23:59;;;;;;;;;;;;;;;27.30;27.88;96423.75;6159552;28;20028;-74
2023/06/04 16:27:01;;;;;;;;;;;;;;;27.19;28.06;96437.94;6176437;28;19972;-74
2023/06/04 16:30:05;;;;;;;;;;;;;;;27.06;28.28;96427.16;6159169;28;20005;-75
2023/06/04 16:33:08;;;;;;;;;;;;;;;26.99;28.23;96423.66;6176510;28;19926;-73
2023/06/04 16:36:11;;;;;;;;;;;;;;;26.87;28.56;96429.72;6176398;28;20312;-74
2023/06/04 16:39:15;;;;;;;;;;;;;;;26.74;28.68;96435.16;6176420;28;19996;-73
2023/06/04 16:42:19;;;;;;;;;;;;;;;26.63;29.55;96433.09;6176122;28;19922;-75
2023/06/04 16:45:22;;;;;;;;;;;;;;;26.50;29.47;96428.59;6176214;28;19961;-75
2023/06/04 16:48:26;;;;;;;;;;;;;;;26.36;29.69;96435.00;6176217;28;19926;-73
2023/06/04 16:51:30;;;;;;;;;;;;;;;26.20;29.85;96434.38;6158583;28;20192;-74
2023/06/04 16:54:33;;;;;;;;;;;;;;;26.15;30.11;96436.88;6158633;28;19932;-74
2023/06/04 16:57:35;;;;;;;;;;;;;;;26.01;30.16;96431.69;6175957;28;20336;-73
2023/06/04 17:00:38;;;;;;;;;;;;;;;25.88;30.17;96430.66;6175674;28;19933;-74
2023/06/04 17:03:42;;;;;;;;;;;;;;;25.81;30.24;96434.34;6175874;28;19926;-74
2023/06/04 17:06:44;;;;;;;;;;;;;;;25.60;30.40;96428.13;6159055;28;19932;-74
2023/06/04 17:09:47;;;;;;;;;;;;;;;25.49;30.62;96437.63;6159018;28;20016;-74
2023/06/04 17:12:51;;;;;;;;;;;;;;;25.44;30.76;96437.41;6158581;28;19930;-74
2023/06/04 17:15:54;;;;;;;;;;;;;;;25.33;31.03;96443.38;6175487;28;19932;-73
2023/06/04 17:18:57;;;;;;;;;;;;;;;25.18;30.75;96442.72;6158521;28;20072;-74
2023/06/04 17:22:02;;;;;;;;;;;;;;;25.13;32.16;96443.28;6175932;28;20017;-74
2023/06/04 17:25:06;;;;;;;;;;;;;;;25.10;31.37;96451.75;6158483;28;20451;-74
2023/06/04 17:28:09;;;;;;;;;;;;;;;25.00;31.64;96456.69;6175226;28;20016;-75
2023/06/04 17:31:16;;;;;;;;;;;;;;;24.91;31.61;96450.66;6157851;28;20378;-75
2023/06/04 17:34:19;;;;;;;;;;;;;;;24.83;31.77;96448.97;6151254;28;19933;-75
2023/06/04 17:37:22;;;;;;;;;;;;;;;24.70;31.75;96453.44;6151273;29;19926;-75
2023/06/04 17:40:25;;;;;;;;;;;;;;;24.60;31.81;96454.63;6151172;29;20382;-74
2023/06/04 17:43:28;;;;;;;;;;;;;;;24.49;32.25;96451.66;6150999;29;19926;-74
2023/06/04 17:46:32;;;;;;;;;;;;;;;24.36;32.44;96457.75;6151167;29;20400;-74
2023/06/04 17:49:35;;;;;;;;;;;;;;;24.31;32.80;96449.41;6150905;29;20347;-74
2023/06/04 17:52:40;;;;;;;;;;;;;;;24.25;32.43;96456.41;6151162;29;19970;-73
2023/06/04 17:55:43;;;;;;;;;;;;;;;24.23;32.79;96463.00;6133769;29;19926;-74
2023/06/04 17:58:46;;;;;;;;;;;;;;;24.17;32.85;96465.44;6150553;29;19927;-74
2023/06/04 18:01:50;;;;;;;;;;;;;;;24.15;32.46;96461.31;6150850;29;19927;-75
2023/06/04 18:04:53;;;;;;;;;;;;;;;24.10;32.92;96469.13;6150513;29;19926;-74
2023/06/04 18:07:56;;;;;;;;;;;;;;;24.03;32.63;96469.03;6150205;29;19926;-74
2023/06/04 18:11:00;;;;;;;;;;;;;;;24.05;33.22;96467.00;6150410;29;20021;-73
2023/06/04 18:14:04;;;;;;;;;;;;;;;23.98;33.00;96464.28;6150448;29;20393;-75
2023/06/04 18:17:07;;;;;;;;;;;;;;;23.90;33.50;96463.59;6150445;29;20312;-73